createdAt,value
2023-05-03T00:02:10.432Z,5.90
2023-05-03T00:05:01.002Z,5.60
2023-05-03T00:07:48.991Z,5.97
2023-05-03T00:10:36.920Z,5.60
2023-05-03T00:13:24.849Z,5.43
2023-05-03T00:16:12.862Z,6.37
2023-05-03T00:19:02.248Z,6.23
2023-05-03T00:21:50.190Z,5.70
2023-05-03T00:24:38.144Z,6.53
2023-05-03T00:27:26.037Z,6.10
2023-05-03T00:30:14.816Z,6.17
2023-05-03T00:33:02.762Z,6.07
2023-05-03T00:35:52.188Z,5.87
2023-05-03T00:38:40.896Z,5.70
2023-05-03T00:41:28.826Z,5.63
2023-05-03T00:44:16.796Z,5.43
2023-05-03T00:47:04.943Z,6.07
2023-05-03T00:49:52.902Z,5.73
2023-05-03T00:52:42.622Z,5.77
2023-05-03T00:55:31.735Z,5.20
2023-05-03T00:58:19.650Z,5.43
2023-05-03T01:01:08.783Z,5.53
2023-05-03T01:03:57.288Z,5.63
2023-05-03T01:06:53.706Z,4.87
2023-05-03T01:09:50.263Z,5.53
2023-05-03T01:12:48.851Z,5.10
2023-05-03T01:15:46.199Z,5.60
2023-05-03T01:18:40.969Z,5.93
2023-05-03T01:21:30.866Z,5.67
2023-05-03T01:24:25.081Z,5.33
2023-05-03T01:27:14.411Z,5.30
2023-05-03T01:30:04.072Z,6.00
2023-05-03T01:33:00.633Z,5.60
2023-05-03T01:35:53.695Z,5.97
2023-05-03T01:38:42.140Z,5.93
2023-05-03T01:41:31.297Z,6.57
2023-05-03T01:44:22.180Z,6.00
2023-05-03T01:47:10.543Z,5.93
2023-05-03T01:49:58.522Z,5.90
2023-05-03T01:52:46.454Z,5.90
2023-05-03T01:55:34.437Z,5.83
2023-05-03T01:58:22.312Z,6.17
2023-05-03T02:01:11.776Z,5.10
2023-05-03T02:03:59.853Z,5.87
2023-05-03T02:06:48.181Z,5.80
2023-05-03T02:09:36.284Z,5.60
2023-05-03T02:12:24.268Z,5.13
2023-05-03T02:15:13.864Z,5.30
2023-05-03T02:18:03.568Z,5.83
2023-05-03T02:20:51.586Z,6.47
2023-05-03T02:23:39.650Z,6.70
2023-05-03T02:26:27.678Z,5.73
2023-05-03T02:29:15.649Z,5.67
2023-05-03T02:32:05.407Z,5.70
2023-05-03T02:34:55.584Z,6.80
2023-05-03T02:37:43.682Z,5.20
2023-05-03T02:40:31.660Z,5.00
2023-05-03T02:43:19.566Z,5.17
2023-05-03T02:46:07.586Z,5.40
2023-05-03T02:48:55.580Z,6.03
2023-05-03T02:51:44.817Z,5.57
2023-05-03T02:54:32.693Z,5.00
2023-05-03T02:57:20.639Z,5.70
2023-05-03T03:00:11.078Z,5.13
2023-05-03T03:02:59.418Z,5.63
2023-05-03T03:05:47.440Z,5.20
2023-05-03T03:08:37.283Z,4.90
2023-05-03T03:11:25.508Z,5.80
2023-05-03T03:14:13.601Z,5.23
2023-05-03T03:17:02.713Z,6.03
2023-05-03T03:19:51.171Z,5.10
2023-05-03T03:22:39.141Z,4.67
2023-05-03T03:25:28.569Z,5.37
2023-05-03T03:28:16.744Z,4.97
2023-05-03T03:31:04.806Z,5.70
2023-05-03T03:33:53.108Z,5.10
2023-05-03T03:36:41.120Z,5.33
2023-05-03T03:39:29.134Z,5.17
2023-05-03T03:42:19.200Z,5.20
2023-05-03T03:45:09.398Z,5.17
2023-05-03T03:47:58.157Z,5.63
2023-05-03T03:50:46.976Z,5.30
2023-05-03T03:53:34.903Z,5.03
2023-05-03T03:56:23.737Z,5.33
2023-05-03T03:59:13.507Z,5.67
2023-05-03T04:02:01.466Z,5.43
2023-05-03T04:04:49.473Z,5.90
2023-05-03T04:07:37.412Z,5.40
2023-05-03T04:10:25.552Z,5.07
2023-05-03T04:13:13.522Z,5.80
2023-05-03T04:16:04.560Z,5.43
2023-05-03T04:18:52.875Z,5.50
2023-05-03T04:21:40.782Z,4.93
2023-05-03T04:24:31.568Z,5.07
2023-05-03T04:27:19.623Z,5.57
2023-05-03T04:30:08.802Z,5.57
2023-05-03T04:32:58.372Z,5.80
2023-05-03T04:35:49.673Z,5.43
2023-05-03T04:38:37.593Z,5.40
2023-05-03T04:41:25.970Z,5.73
2023-05-03T04:44:14.437Z,5.93
2023-05-03T04:47:02.901Z,6.37
2023-05-03T04:49:52.452Z,5.87
2023-05-03T04:52:40.584Z,6.57
2023-05-03T04:55:28.584Z,5.57
2023-05-03T04:58:16.576Z,5.57
2023-05-03T05:01:04.637Z,6.43
2023-05-03T05:03:52.812Z,5.60
2023-05-03T05:06:42.663Z,5.27
2023-05-03T05:09:31.853Z,5.40
2023-05-03T05:12:19.826Z,5.63
2023-05-03T05:15:09.097Z,5.93
2023-05-03T05:17:57.724Z,5.73
2023-05-03T05:20:45.916Z,5.30
2023-05-03T05:23:36.185Z,5.60
2023-05-03T05:26:24.168Z,5.30
2023-05-03T05:29:12.090Z,5.30
2023-05-03T05:32:02.007Z,5.40
2023-05-03T05:34:53.158Z,5.33
2023-05-03T05:37:41.138Z,5.17
2023-05-03T05:40:30.482Z,5.43
2023-05-03T05:43:18.770Z,4.90
2023-05-03T05:46:06.737Z,5.33
2023-05-03T05:48:54.672Z,4.67
2023-05-03T05:51:42.644Z,4.40
2023-05-03T05:54:30.939Z,4.60
2023-05-03T05:57:20.157Z,4.60
2023-05-03T06:00:14.635Z,5.60
2023-05-03T06:03:02.646Z,4.60
2023-05-03T06:05:50.641Z,4.40
2023-05-03T06:08:38.906Z,4.40
2023-05-03T06:11:26.924Z,4.67
2023-05-03T06:14:17.134Z,4.50
2023-05-03T06:17:05.070Z,4.60
2023-05-03T06:19:53.219Z,4.23
2023-05-03T06:22:41.304Z,3.90
2023-05-03T06:25:29.248Z,4.27
2023-05-03T06:28:17.133Z,4.10
2023-05-03T06:31:06.569Z,4.23
2023-05-03T06:33:54.548Z,4.40
2023-05-03T06:36:42.448Z,4.37
2023-05-03T06:39:31.137Z,4.10
2023-05-03T06:42:19.101Z,4.17
2023-05-03T06:45:08.355Z,4.23
2023-05-03T06:47:57.588Z,4.07
2023-05-03T06:50:45.712Z,3.83
2023-05-03T06:53:33.672Z,3.60
2023-05-03T06:56:21.616Z,3.60
2023-05-03T06:59:09.669Z,3.43
2023-05-03T07:01:57.626Z,3.47
2023-05-03T07:04:46.975Z,3.40
2023-05-03T07:07:35.046Z,3.63
2023-05-03T07:10:23.154Z,3.40
2023-05-03T07:13:11.108Z,3.13
2023-05-03T07:16:01.345Z,2.93
2023-05-03T07:18:51.239Z,3.10
2023-05-03T07:21:40.622Z,3.27
2023-05-03T07:24:28.561Z,2.90
2023-05-03T07:27:16.509Z,2.67
2023-05-03T07:30:05.430Z,2.80
2023-05-03T07:32:53.673Z,2.57
2023-05-03T07:35:41.701Z,2.90
2023-05-03T07:38:31.057Z,2.80
2023-05-03T07:41:19.079Z,2.70
2023-05-03T07:44:07.795Z,2.60
2023-05-03T07:46:56.080Z,2.70
2023-05-03T07:49:44.108Z,2.70
2023-05-03T07:52:36.309Z,2.80
2023-05-03T07:55:26.783Z,2.70
2023-05-03T07:58:14.727Z,2.90
2023-05-03T08:01:03.639Z,2.43
2023-05-03T08:03:51.903Z,2.90
2023-05-03T08:06:39.985Z,3.20
2023-05-03T08:09:28.253Z,3.20
2023-05-03T08:12:17.456Z,2.80
2023-05-03T08:15:07.166Z,2.97
2023-05-03T08:17:55.173Z,2.70
2023-05-03T08:20:43.894Z,2.80
2023-05-03T08:23:32.047Z,3.50
2023-05-03T08:26:22.176Z,3.47
2023-05-03T08:29:11.548Z,3.23
2023-05-03T08:31:59.801Z,3.20
2023-05-03T08:34:47.810Z,2.70
2023-05-03T08:37:43.331Z,2.93
2023-05-03T08:40:35.868Z,3.33
2023-05-03T08:43:27.831Z,3.10
2023-05-03T08:46:17.345Z,2.70
2023-05-03T08:49:06.778Z,3.00
2023-05-03T08:51:56.649Z,3.30
2023-05-03T08:54:46.665Z,2.93
2023-05-03T08:57:35.681Z,2.83
2023-05-03T09:00:29.936Z,3.23
2023-05-03T09:03:19.296Z,3.17
2023-05-03T09:06:21.226Z,3.33
2023-05-03T09:09:09.725Z,3.20
2023-05-03T09:11:58.235Z,3.10
2023-05-03T09:14:47.470Z,3.27
2023-05-03T09:17:35.563Z,3.03
2023-05-03T09:20:36.523Z,3.10
2023-05-03T09:23:32.360Z,3.00
2023-05-03T09:26:29.433Z,3.00
2023-05-03T09:29:31.201Z,3.40
2023-05-03T09:32:19.876Z,3.27
2023-05-03T09:35:11.218Z,3.27
2023-05-03T09:38:00.799Z,3.03
2023-05-03T09:40:49.502Z,2.73
2023-05-03T09:43:49.923Z,3.07
2023-05-03T09:46:38.298Z,2.73
2023-05-03T09:49:26.349Z,3.57
2023-05-03T09:52:14.712Z,3.03
2023-05-03T09:55:04.400Z,2.90
2023-05-03T09:57:56.290Z,3.00
2023-05-03T10:00:52.124Z,2.80
2023-05-03T10:03:43.831Z,2.60
2023-05-03T10:06:33.686Z,2.50
2023-05-03T10:09:26.958Z,3.13
2023-05-03T10:12:17.424Z,2.83
2023-05-03T10:15:08.790Z,3.10
2023-05-03T10:18:03.437Z,2.93
2023-05-03T10:20:57.383Z,2.90
2023-05-03T10:24:11.084Z,2.60
2023-05-03T10:26:59.546Z,2.87
2023-05-03T10:29:54.009Z,2.90
2023-05-03T10:32:43.355Z,3.30
2023-05-03T10:35:31.413Z,2.90
2023-05-03T10:38:22.255Z,3.30
2023-05-03T10:41:10.552Z,2.77
2023-05-03T10:43:58.578Z,2.77
2023-05-03T10:46:47.897Z,3.00
2023-05-03T10:49:35.934Z,2.53
2023-05-03T10:52:49.345Z,2.87
2023-05-03T10:55:38.047Z,2.80
2023-05-03T10:58:26.328Z,2.77
2023-05-03T11:01:16.242Z,2.87
2023-05-03T11:04:11.280Z,3.03
2023-05-03T11:07:00.377Z,2.87
2023-05-03T11:09:48.382Z,2.83
2023-05-03T11:12:36.534Z,2.67
2023-05-03T11:15:24.561Z,2.90
2023-05-03T11:18:12.967Z,3.00
2023-05-03T11:21:02.909Z,2.77
2023-05-03T11:23:50.856Z,2.40
2023-05-03T11:26:39.856Z,2.87
2023-05-03T11:29:28.205Z,2.50
2023-05-03T11:32:16.649Z,2.80
2023-05-03T11:35:05.802Z,2.70
2023-05-03T11:37:55.435Z,3.40
2023-05-03T11:40:43.430Z,3.10
2023-05-03T11:43:31.445Z,2.60
2023-05-03T11:46:27.378Z,2.53
2023-05-03T11:49:19.646Z,3.00
2023-05-03T11:52:08.931Z,2.90
2023-05-03T11:54:58.258Z,3.07
2023-05-03T11:57:46.305Z,3.10
2023-05-03T12:00:34.438Z,3.00
2023-05-03T12:03:27.717Z,3.10
2023-05-03T12:06:19.263Z,2.73
2023-05-03T12:09:15.708Z,3.20
2023-05-03T12:12:07.156Z,3.10
2023-05-03T12:14:59.521Z,2.90
2023-05-03T12:17:49.819Z,2.63
2023-05-03T12:23:30.912Z,3.13
2023-05-03T12:26:20.034Z,3.00
2023-05-03T12:29:11.960Z,3.23
2023-05-03T12:32:03.220Z,3.13
2023-05-03T12:34:52.553Z,3.40
2023-05-03T12:37:43.329Z,3.30
2023-05-03T12:40:34.587Z,3.10
2023-05-03T12:43:23.295Z,3.00
2023-05-03T12:46:32.865Z,3.20
2023-05-03T12:49:23.226Z,2.80
2023-05-03T12:52:36.509Z,3.07
2023-05-03T12:55:24.677Z,2.77
2023-05-03T12:58:43.159Z,2.97
2023-05-03T13:02:17.579Z,3.13
2023-05-03T13:07:28.197Z,3.07
2023-05-03T13:13:06.829Z,2.87
2023-05-03T13:15:54.868Z,3.10
2023-05-03T13:18:45.360Z,3.20
2023-05-03T13:21:33.598Z,3.00
2023-05-03T13:24:21.631Z,3.10
2023-05-03T13:27:10.510Z,3.23
2023-05-03T13:29:58.549Z,3.10
2023-05-03T13:32:46.536Z,2.87
2023-05-03T13:35:35.989Z,2.90
2023-05-03T13:38:24.071Z,3.27
2023-05-03T13:41:12.785Z,3.10
2023-05-03T13:44:00.768Z,3.23
2023-05-03T13:46:48.986Z,2.60
2023-05-03T13:49:36.984Z,2.90
2023-05-03T13:52:26.304Z,2.87
2023-05-03T13:55:14.408Z,2.90
2023-05-03T13:58:02.314Z,2.30
2023-05-03T14:00:50.305Z,2.40
2023-05-03T14:03:38.259Z,3.07
2023-05-03T14:06:27.459Z,2.40
2023-05-03T14:09:16.917Z,3.23
2023-05-03T14:12:05.538Z,2.87
2023-05-03T14:14:54.710Z,2.80
2023-05-03T14:17:43.627Z,2.30
2023-05-03T14:20:31.686Z,2.70
2023-05-03T14:23:19.581Z,2.90
2023-05-03T14:26:09.265Z,2.60
2023-05-03T14:28:57.261Z,2.43
2023-05-03T14:31:45.350Z,2.17
2023-05-03T14:34:33.396Z,2.63
2023-05-03T14:37:21.583Z,2.60
2023-05-03T14:40:10.783Z,2.67
2023-05-03T14:43:00.026Z,2.43
2023-05-03T14:45:48.205Z,2.60
2023-05-03T14:48:36.182Z,2.20
2023-05-03T14:51:24.987Z,2.67
2023-05-03T14:54:13.001Z,2.40
2023-05-03T14:57:01.260Z,2.97
2023-05-03T14:59:50.534Z,2.63
2023-05-03T15:02:38.525Z,2.70
2023-05-03T15:05:26.895Z,2.50
2023-05-03T15:08:16.881Z,2.30
2023-05-03T15:11:05.192Z,2.57
2023-05-03T15:13:53.165Z,2.47
2023-05-03T15:16:42.540Z,2.50
2023-05-03T15:19:30.587Z,2.53
2023-05-03T15:22:18.503Z,2.60
2023-05-03T15:25:07.175Z,3.50
2023-05-03T15:27:55.134Z,2.47
2023-05-03T15:30:43.079Z,2.80
2023-05-03T15:33:39.791Z,2.60
2023-05-03T15:36:28.145Z,2.47
2023-05-03T15:39:16.054Z,2.43
2023-05-03T15:42:04.017Z,2.60
2023-05-03T15:44:52.166Z,2.30
2023-05-03T15:47:40.172Z,2.53
2023-05-03T15:50:30.870Z,2.20
2023-05-03T15:53:18.926Z,2.10
2023-05-03T15:56:09.152Z,2.17
2023-05-03T15:58:57.591Z,1.90
2023-05-03T16:01:45.703Z,2.20
2023-05-03T16:04:33.677Z,2.20
2023-05-03T16:07:23.012Z,2.40
2023-05-03T16:10:11.598Z,2.13
2023-05-03T16:12:59.553Z,2.00
2023-05-03T16:15:48.419Z,2.43
2023-05-03T16:18:36.756Z,2.10
2023-05-03T16:21:25.255Z,2.40
2023-05-03T16:24:14.962Z,2.50
2023-05-03T16:27:03.761Z,2.47
2023-05-03T16:29:51.712Z,1.97
2023-05-03T16:32:40.114Z,2.20
2023-05-03T16:35:28.167Z,2.60
2023-05-03T16:38:16.551Z,2.20
2023-05-03T16:41:06.148Z,2.10
2023-05-03T16:43:54.176Z,2.07
2023-05-03T16:46:43.048Z,2.40
2023-05-03T16:49:34.302Z,2.40
2023-05-03T16:52:22.220Z,1.80
2023-05-03T16:55:11.507Z,2.10
2023-05-03T16:58:00.840Z,2.50
2023-05-03T17:00:48.946Z,1.97
2023-05-03T17:03:37.108Z,1.90
2023-05-03T17:06:25.103Z,2.00
2023-05-03T17:09:13.406Z,2.00
2023-05-03T17:12:03.525Z,1.87
2023-05-03T17:14:53.183Z,1.80
2023-05-03T17:17:41.370Z,1.90
2023-05-03T17:20:29.600Z,2.00
2023-05-03T17:23:18.770Z,2.00
2023-05-03T17:26:11.348Z,1.90
2023-05-03T17:28:59.210Z,2.20
2023-05-03T17:31:48.965Z,1.70
2023-05-03T17:34:37.165Z,1.93
2023-05-03T17:37:25.277Z,1.73
2023-05-03T17:40:14.093Z,2.20
2023-05-03T17:43:02.055Z,1.70
2023-05-03T17:45:50.075Z,2.00
2023-05-03T17:48:42.494Z,1.87
2023-05-03T17:51:32.168Z,2.00
2023-05-03T17:54:20.098Z,1.73
2023-05-03T17:57:08.098Z,2.27
2023-05-03T17:59:56.113Z,1.93
2023-05-03T18:02:44.802Z,2.20
2023-05-03T18:05:37.165Z,2.53
2023-05-03T18:08:25.126Z,2.03
2023-05-03T18:11:13.214Z,2.00
2023-05-03T18:14:01.208Z,2.00
2023-05-03T18:16:49.274Z,1.70
2023-05-03T18:19:37.336Z,2.10
2023-05-03T18:22:27.680Z,2.00
2023-05-03T18:25:15.798Z,2.30
2023-05-03T18:28:03.972Z,2.40
2023-05-03T18:30:53.119Z,2.50
2023-05-03T18:33:41.401Z,2.47
2023-05-03T18:36:29.641Z,3.00
2023-05-03T18:39:19.102Z,2.90
2023-05-03T18:42:07.108Z,2.77
2023-05-03T18:44:55.072Z,2.40
2023-05-03T18:47:43.144Z,2.10
2023-05-03T18:50:31.516Z,2.70
2023-05-03T18:53:19.745Z,2.50
2023-05-03T18:56:10.025Z,2.23
2023-05-03T18:58:57.966Z,2.10
2023-05-03T19:01:45.966Z,2.00
2023-05-03T19:04:34.034Z,2.13
2023-05-03T19:07:23.171Z,2.07
2023-05-03T19:10:11.775Z,2.10
2023-05-03T19:13:02.999Z,2.10
2023-05-03T19:15:51.548Z,1.77
2023-05-03T19:18:42.053Z,2.10
2023-05-03T19:21:30.070Z,1.80
2023-05-03T19:24:18.042Z,1.87
2023-05-03T19:27:05.967Z,2.17
2023-05-03T19:29:57.972Z,2.70
2023-05-03T19:32:45.958Z,1.70
2023-05-03T19:35:39.129Z,1.90
2023-05-03T19:38:27.402Z,1.77
2023-05-03T19:41:15.484Z,2.00
2023-05-03T19:44:03.426Z,1.80
2023-05-03T19:46:53.970Z,2.03
2023-05-03T19:49:41.908Z,1.80
2023-05-03T19:52:29.856Z,1.90
2023-05-03T19:55:17.878Z,2.50
2023-05-03T19:58:05.871Z,3.07
2023-05-03T20:00:54.512Z,3.73
2023-05-03T20:03:43.781Z,3.67
2023-05-03T20:06:31.793Z,3.60
2023-05-03T20:09:23.202Z,3.40
2023-05-03T20:12:12.011Z,3.37
2023-05-03T20:15:00.066Z,2.83
2023-05-03T20:17:48.001Z,3.07
2023-05-03T20:20:37.330Z,2.50
2023-05-03T20:23:25.601Z,2.87
2023-05-03T20:26:13.543Z,2.50
2023-05-03T20:29:01.442Z,2.13
2023-05-03T20:31:52.071Z,2.20
2023-05-03T20:34:40.940Z,2.27
2023-05-03T20:37:30.207Z,2.60
2023-05-03T20:40:18.273Z,2.30
2023-05-03T20:43:06.165Z,2.20
2023-05-03T20:45:54.492Z,1.87
2023-05-03T20:48:42.683Z,2.10
2023-05-03T20:51:30.610Z,2.30
2023-05-03T20:54:19.928Z,2.63
2023-05-03T20:57:08.541Z,2.80
2023-05-03T20:59:56.721Z,2.40
2023-05-03T21:02:44.942Z,2.67
2023-05-03T21:05:33.144Z,2.07
2023-05-03T21:08:21.492Z,2.40
2023-05-03T21:11:11.066Z,2.47
2023-05-03T21:14:01.068Z,2.63
2023-05-03T21:16:50.086Z,2.47
2023-05-03T21:19:39.375Z,2.80
2023-05-03T21:22:27.700Z,2.33
2023-05-03T21:25:15.798Z,2.50
2023-05-03T21:28:05.411Z,2.23
2023-05-03T21:30:55.476Z,2.67
2023-05-03T21:33:44.354Z,2.60
2023-05-03T21:36:33.501Z,2.23
2023-05-03T21:39:21.746Z,2.40
2023-05-03T21:42:09.686Z,2.20
2023-05-03T21:44:59.013Z,2.60
2023-05-03T21:47:47.107Z,2.43
2023-05-03T21:50:38.204Z,2.50
2023-05-03T21:53:26.177Z,2.57
2023-05-03T21:56:14.971Z,2.50
2023-05-03T21:59:03.076Z,2.50
2023-05-03T22:01:52.458Z,2.23
2023-05-03T22:04:40.438Z,2.63
2023-05-03T22:07:28.371Z,2.93
2023-05-03T22:10:16.690Z,2.50
2023-05-03T22:13:04.663Z,2.90
2023-05-03T22:15:52.751Z,2.57
2023-05-03T22:18:42.310Z,2.80
2023-05-03T22:21:30.312Z,2.40
2023-05-03T22:24:18.494Z,2.70
2023-05-03T22:27:06.419Z,2.60
2023-05-03T22:29:54.480Z,2.47
2023-05-03T22:32:42.570Z,2.40
2023-05-03T22:35:31.925Z,2.50
2023-05-03T22:38:19.870Z,3.00
2023-05-03T22:41:07.996Z,2.50
2023-05-03T22:43:55.991Z,2.70
2023-05-03T22:46:43.917Z,2.50
2023-05-03T22:49:31.901Z,2.73
2023-05-03T22:52:21.192Z,2.50
2023-05-03T22:55:10.192Z,3.00
2023-05-03T22:57:58.107Z,2.53
2023-05-03T23:00:46.089Z,2.50
2023-05-03T23:03:34.111Z,2.90
2023-05-03T23:06:22.098Z,3.00
2023-05-03T23:09:11.792Z,2.50
2023-05-03T23:12:00.527Z,2.70
2023-05-03T23:14:48.469Z,2.70
2023-05-03T23:17:36.425Z,2.87
2023-05-03T23:20:24.813Z,3.30
2023-05-03T23:23:12.733Z,3.10
2023-05-03T23:26:02.064Z,3.10
2023-05-03T23:28:50.338Z,2.97
2023-05-03T23:31:39.335Z,3.30
2023-05-03T23:34:27.630Z,3.13
2023-05-03T23:37:15.841Z,3.20
2023-05-03T23:40:04.129Z,2.77
2023-05-03T23:42:53.506Z,3.20
2023-05-03T23:45:41.452Z,3.03
2023-05-03T23:48:31.379Z,3.40
2023-05-03T23:51:19.561Z,3.13
2023-05-03T23:54:07.747Z,2.80
2023-05-03T23:56:56.883Z,2.93
2023-05-03T23:59:46.617Z,3.33
